sensor_id;sensor_type;location;lat;lon;timestamp;P1;durP1;ratioP1;P2;durP2;ratioP2
69161;SDS011;56269;51.738;21.652;2023-08-31T00:00:43;11.15;;;4.55;;
69161;SDS011;56269;51.738;21.652;2023-08-31T00:03:27;11.27;;;4.47;;
69161;SDS011;56269;51.738;21.652;2023-08-31T00:05:54;10.07;;;3.70;;
69161;SDS011;56269;51.738;21.652;2023-08-31T00:08:21;12.05;;;4.47;;
69161;SDS011;56269;51.738;21.652;2023-08-31T00:10:57;11.50;;;4.53;;
69161;SDS011;56269;51.738;21.652;2023-08-31T00:13:25;13.23;;;4.43;;
69161;SDS011;56269;51.738;21.652;2023-08-31T00:15:55;12.48;;;4.25;;
69161;SDS011;56269;51.738;21.652;2023-08-31T00:18:25;10.90;;;4.27;;
69161;SDS011;56269;51.738;21.652;2023-08-31T00:20:52;10.63;;;4.20;;
69161;SDS011;56269;51.738;21.652;2023-08-31T00:23:18;12.25;;;4.25;;
69161;SDS011;56269;51.738;21.652;2023-08-31T00:25:45;13.65;;;4.78;;
69161;SDS011;56269;51.738;21.652;2023-08-31T00:28:14;11.20;;;3.97;;
69161;SDS011;56269;51.738;21.652;2023-08-31T00:30:41;10.10;;;4.30;;
69161;SDS011;56269;51.738;21.652;2023-08-31T00:33:10;10.93;;;4.30;;
69161;SDS011;56269;51.738;21.652;2023-08-31T00:35:40;12.13;;;4.68;;
69161;SDS011;56269;51.738;21.652;2023-08-31T00:38:11;11.40;;;4.55;;
69161;SDS011;56269;51.738;21.652;2023-08-31T00:40:38;9.55;;;4.15;;
69161;SDS011;56269;51.738;21.652;2023-08-31T00:43:10;10.60;;;4.47;;
69161;SDS011;56269;51.738;21.652;2023-08-31T00:45:37;11.82;;;4.55;;
69161;SDS011;56269;51.738;21.652;2023-08-31T00:48:06;12.02;;;4.47;;
69161;SDS011;56269;51.738;21.652;2023-08-31T00:50:32;14.18;;;4.90;;
69161;SDS011;56269;51.738;21.652;2023-08-31T00:52:58;11.57;;;4.70;;
69161;SDS011;56269;51.738;21.652;2023-08-31T00:55:25;9.40;;;3.87;;
69161;SDS011;56269;51.738;21.652;2023-08-31T00:57:52;10.80;;;4.50;;
69161;SDS011;56269;51.738;21.652;2023-08-31T01:00:18;13.15;;;4.78;;
69161;SDS011;56269;51.738;21.652;2023-08-31T01:13:34;11.43;;;4.60;;
69161;SDS011;56269;51.738;21.652;2023-08-31T01:16:05;13.10;;;4.80;;
69161;SDS011;56269;51.738;21.652;2023-08-31T01:18:33;14.68;;;5.00;;
69161;SDS011;56269;51.738;21.652;2023-08-31T01:23:52;11.93;;;4.50;;
69161;SDS011;56269;51.738;21.652;2023-08-31T01:26:20;13.98;;;4.80;;
69161;SDS011;56269;51.738;21.652;2023-08-31T01:28:47;12.57;;;4.82;;
69161;SDS011;56269;51.738;21.652;2023-08-31T01:31:13;11.77;;;4.65;;
69161;SDS011;56269;51.738;21.652;2023-08-31T01:33:41;11.17;;;4.63;;
69161;SDS011;56269;51.738;21.652;2023-08-31T01:36:25;11.27;;;4.70;;
69161;SDS011;56269;51.738;21.652;2023-08-31T01:39:06;12.82;;;4.60;;
69161;SDS011;56269;51.738;21.652;2023-08-31T01:41:40;11.77;;;4.45;;
69161;SDS011;56269;51.738;21.652;2023-08-31T01:44:15;11.98;;;4.18;;
69161;SDS011;56269;51.738;21.652;2023-08-31T01:46:45;11.23;;;4.70;;
69161;SDS011;56269;51.738;21.652;2023-08-31T01:49:11;14.38;;;4.90;;
69161;SDS011;56269;51.738;21.652;2023-08-31T01:51:40;13.20;;;5.00;;
69161;SDS011;56269;51.738;21.652;2023-08-31T01:54:06;12.23;;;4.45;;
69161;SDS011;56269;51.738;21.652;2023-08-31T01:56:32;11.55;;;4.57;;
69161;SDS011;56269;51.738;21.652;2023-08-31T01:58:58;11.67;;;4.60;;
69161;SDS011;56269;51.738;21.652;2023-08-31T02:01:24;13.55;;;4.57;;
69161;SDS011;56269;51.738;21.652;2023-08-31T02:03:50;10.57;;;4.55;;
69161;SDS011;56269;51.738;21.652;2023-08-31T02:06:17;11.80;;;4.88;;
69161;SDS011;56269;51.738;21.652;2023-08-31T02:08:42;11.47;;;4.77;;
69161;SDS011;56269;51.738;21.652;2023-08-31T02:11:13;11.57;;;4.03;;
69161;SDS011;56269;51.738;21.652;2023-08-31T02:13:39;12.02;;;4.28;;
69161;SDS011;56269;51.738;21.652;2023-08-31T02:16:07;14.10;;;4.35;;
69161;SDS011;56269;51.738;21.652;2023-08-31T02:18:33;10.68;;;4.50;;
69161;SDS011;56269;51.738;21.652;2023-08-31T02:21:01;11.97;;;4.60;;
69161;SDS011;56269;51.738;21.652;2023-08-31T02:23:29;10.45;;;3.88;;
69161;SDS011;56269;51.738;21.652;2023-08-31T02:25:55;10.85;;;4.28;;
69161;SDS011;56269;51.738;21.652;2023-08-31T02:28:21;11.40;;;4.55;;
69161;SDS011;56269;51.738;21.652;2023-08-31T02:30:56;11.32;;;4.35;;
69161;SDS011;56269;51.738;21.652;2023-08-31T02:33:23;11.20;;;4.50;;
69161;SDS011;56269;51.738;21.652;2023-08-31T02:35:50;10.68;;;4.68;;
69161;SDS011;56269;51.738;21.652;2023-08-31T02:38:16;12.20;;;4.90;;
69161;SDS011;56269;51.738;21.652;2023-08-31T02:40:45;10.65;;;4.50;;
69161;SDS011;56269;51.738;21.652;2023-08-31T02:43:11;11.45;;;4.28;;
69161;SDS011;56269;51.738;21.652;2023-08-31T02:45:39;13.90;;;4.63;;
69161;SDS011;56269;51.738;21.652;2023-08-31T02:48:07;14.75;;;5.00;;
69161;SDS011;56269;51.738;21.652;2023-08-31T02:50:34;11.63;;;5.15;;
69161;SDS011;56269;51.738;21.652;2023-08-31T02:53:00;11.45;;;4.90;;
69161;SDS011;56269;51.738;21.652;2023-08-31T02:55:27;11.15;;;4.72;;
69161;SDS011;56269;51.738;21.652;2023-08-31T02:57:54;14.87;;;5.03;;
69161;SDS011;56269;51.738;21.652;2023-08-31T03:00:21;15.38;;;4.85;;
69161;SDS011;56269;51.738;21.652;2023-08-31T03:02:47;13.38;;;5.75;;
69161;SDS011;56269;51.738;21.652;2023-08-31T03:05:14;11.65;;;4.82;;
69161;SDS011;56269;51.738;21.652;2023-08-31T03:07:41;14.18;;;5.40;;
69161;SDS011;56269;51.738;21.652;2023-08-31T03:10:08;12.03;;;5.00;;
69161;SDS011;56269;51.738;21.652;2023-08-31T03:12:34;10.93;;;4.80;;
69161;SDS011;56269;51.738;21.652;2023-08-31T03:15:00;12.63;;;4.85;;
69161;SDS011;56269;51.738;21.652;2023-08-31T03:17:26;11.23;;;5.00;;
69161;SDS011;56269;51.738;21.652;2023-08-31T03:19:52;12.13;;;5.32;;
69161;SDS011;56269;51.738;21.652;2023-08-31T03:22:18;12.10;;;4.87;;
69161;SDS011;56269;51.738;21.652;2023-08-31T03:24:45;12.25;;;5.13;;
69161;SDS011;56269;51.738;21.652;2023-08-31T03:27:11;12.30;;;4.93;;
69161;SDS011;56269;51.738;21.652;2023-08-31T03:29:37;11.00;;;4.57;;
69161;SDS011;56269;51.738;21.652;2023-08-31T03:32:05;12.67;;;5.27;;
69161;SDS011;56269;51.738;21.652;2023-08-31T03:34:31;12.00;;;5.30;;
69161;SDS011;56269;51.738;21.652;2023-08-31T03:36:58;11.73;;;5.18;;
69161;SDS011;56269;51.738;21.652;2023-08-31T03:39:25;11.85;;;4.82;;
69161;SDS011;56269;51.738;21.652;2023-08-31T03:41:51;11.77;;;4.90;;
69161;SDS011;56269;51.738;21.652;2023-08-31T03:44:17;13.20;;;4.90;;
69161;SDS011;56269;51.738;21.652;2023-08-31T03:46:43;13.85;;;5.25;;
69161;SDS011;56269;51.738;21.652;2023-08-31T03:49:10;10.95;;;4.95;;
69161;SDS011;56269;51.738;21.652;2023-08-31T03:51:36;11.50;;;5.28;;
69161;SDS011;56269;51.738;21.652;2023-08-31T03:54:02;12.32;;;5.00;;
69161;SDS011;56269;51.738;21.652;2023-08-31T03:56:28;12.87;;;4.97;;
69161;SDS011;56269;51.738;21.652;2023-08-31T03:58:54;12.35;;;5.07;;
69161;SDS011;56269;51.738;21.652;2023-08-31T04:01:22;11.70;;;5.00;;
69161;SDS011;56269;51.738;21.652;2023-08-31T04:03:49;13.00;;;5.00;;
69161;SDS011;56269;51.738;21.652;2023-08-31T04:06:17;12.98;;;5.15;;
69161;SDS011;56269;51.738;21.652;2023-08-31T04:08:43;13.27;;;5.07;;
69161;SDS011;56269;51.738;21.652;2023-08-31T04:11:09;12.02;;;5.18;;
69161;SDS011;56269;51.738;21.652;2023-08-31T04:13:35;13.90;;;4.97;;
69161;SDS011;56269;51.738;21.652;2023-08-31T04:16:01;12.88;;;5.05;;
69161;SDS011;56269;51.738;21.652;2023-08-31T04:18:29;13.23;;;4.67;;
69161;SDS011;56269;51.738;21.652;2023-08-31T04:20:56;10.95;;;4.90;;
69161;SDS011;56269;51.738;21.652;2023-08-31T04:23:24;11.85;;;5.38;;
69161;SDS011;56269;51.738;21.652;2023-08-31T04:25:50;12.25;;;5.00;;
69161;SDS011;56269;51.738;21.652;2023-08-31T04:28:17;12.07;;;4.80;;
69161;SDS011;56269;51.738;21.652;2023-08-31T04:30:43;10.52;;;4.72;;
69161;SDS011;56269;51.738;21.652;2023-08-31T04:33:10;10.70;;;5.10;;
69161;SDS011;56269;51.738;21.652;2023-08-31T04:35:36;13.90;;;5.22;;
69161;SDS011;56269;51.738;21.652;2023-08-31T04:38:03;11.90;;;4.68;;
69161;SDS011;56269;51.738;21.652;2023-08-31T04:40:29;11.10;;;4.87;;
69161;SDS011;56269;51.738;21.652;2023-08-31T04:42:57;12.10;;;4.63;;
69161;SDS011;56269;51.738;21.652;2023-08-31T04:45:23;11.68;;;4.70;;
69161;SDS011;56269;51.738;21.652;2023-08-31T04:47:49;11.88;;;5.00;;
69161;SDS011;56269;51.738;21.652;2023-08-31T04:50:16;11.60;;;5.40;;
69161;SDS011;56269;51.738;21.652;2023-08-31T04:52:43;11.40;;;4.80;;
69161;SDS011;56269;51.738;21.652;2023-08-31T04:55:09;11.43;;;5.10;;
69161;SDS011;56269;51.738;21.652;2023-08-31T04:57:38;10.93;;;4.55;;
69161;SDS011;56269;51.738;21.652;2023-08-31T05:00:05;10.55;;;4.60;;
69161;SDS011;56269;51.738;21.652;2023-08-31T05:02:34;13.13;;;4.17;;
69161;SDS011;56269;51.738;21.652;2023-08-31T05:05:00;11.85;;;4.40;;
69161;SDS011;56269;51.738;21.652;2023-08-31T05:07:27;9.73;;;4.53;;
69161;SDS011;56269;51.738;21.652;2023-08-31T05:09:53;12.73;;;4.28;;
69161;SDS011;56269;51.738;21.652;2023-08-31T05:12:19;11.05;;;4.50;;
69161;SDS011;56269;51.738;21.652;2023-08-31T05:14:45;10.27;;;4.50;;
69161;SDS011;56269;51.738;21.652;2023-08-31T05:17:11;10.38;;;4.32;;
69161;SDS011;56269;51.738;21.652;2023-08-31T05:19:38;9.93;;;4.18;;
69161;SDS011;56269;51.738;21.652;2023-08-31T05:22:05;11.15;;;4.43;;
69161;SDS011;56269;51.738;21.652;2023-08-31T05:24:31;10.97;;;4.37;;
69161;SDS011;56269;51.738;21.652;2023-08-31T05:26:57;10.02;;;4.32;;
69161;SDS011;56269;51.738;21.652;2023-08-31T05:29:23;11.75;;;4.50;;
69161;SDS011;56269;51.738;21.652;2023-08-31T05:31:51;11.18;;;4.13;;
69161;SDS011;56269;51.738;21.652;2023-08-31T05:34:20;10.10;;;4.43;;
69161;SDS011;56269;51.738;21.652;2023-08-31T05:36:47;9.37;;;4.40;;
69161;SDS011;56269;51.738;21.652;2023-08-31T05:39:13;10.60;;;4.88;;
69161;SDS011;56269;51.738;21.652;2023-08-31T05:41:43;9.85;;;4.47;;
69161;SDS011;56269;51.738;21.652;2023-08-31T05:44:09;9.57;;;3.88;;
69161;SDS011;56269;51.738;21.652;2023-08-31T05:46:36;11.30;;;4.55;;
69161;SDS011;56269;51.738;21.652;2023-08-31T05:49:04;9.60;;;4.50;;
69161;SDS011;56269;51.738;21.652;2023-08-31T05:51:30;10.77;;;4.38;;
69161;SDS011;56269;51.738;21.652;2023-08-31T05:53:56;8.88;;;4.15;;
69161;SDS011;56269;51.738;21.652;2023-08-31T05:56:22;10.55;;;4.07;;
69161;SDS011;56269;51.738;21.652;2023-08-31T05:58:48;12.50;;;4.70;;
69161;SDS011;56269;51.738;21.652;2023-08-31T06:01:16;10.20;;;4.20;;
69161;SDS011;56269;51.738;21.652;2023-08-31T06:03:42;10.88;;;4.60;;
69161;SDS011;56269;51.738;21.652;2023-08-31T06:06:08;10.05;;;4.15;;
69161;SDS011;56269;51.738;21.652;2023-08-31T06:08:34;9.40;;;3.90;;
69161;SDS011;56269;51.738;21.652;2023-08-31T06:11:01;11.13;;;4.43;;
69161;SDS011;56269;51.738;21.652;2023-08-31T06:13:29;13.98;;;6.03;;
69161;SDS011;56269;51.738;21.652;2023-08-31T06:15:55;9.32;;;4.28;;
69161;SDS011;56269;51.738;21.652;2023-08-31T06:18:23;10.32;;;4.45;;
69161;SDS011;56269;51.738;21.652;2023-08-31T06:20:50;9.40;;;4.00;;
69161;SDS011;56269;51.738;21.652;2023-08-31T06:23:16;9.10;;;4.00;;
69161;SDS011;56269;51.738;21.652;2023-08-31T06:25:42;8.80;;;4.10;;
69161;SDS011;56269;51.738;21.652;2023-08-31T06:28:08;10.02;;;3.88;;
69161;SDS011;56269;51.738;21.652;2023-08-31T06:30:37;8.68;;;3.90;;
69161;SDS011;56269;51.738;21.652;2023-08-31T06:33:03;9.25;;;4.28;;
69161;SDS011;56269;51.738;21.652;2023-08-31T06:35:30;9.77;;;4.07;;
69161;SDS011;56269;51.738;21.652;2023-08-31T06:37:57;10.18;;;3.83;;
69161;SDS011;56269;51.738;21.652;2023-08-31T06:40:24;8.85;;;3.65;;
69161;SDS011;56269;51.738;21.652;2023-08-31T06:42:50;8.05;;;3.65;;
69161;SDS011;56269;51.738;21.652;2023-08-31T06:45:17;8.50;;;3.70;;
69161;SDS011;56269;51.738;21.652;2023-08-31T06:47:43;8.70;;;3.80;;
69161;SDS011;56269;51.738;21.652;2023-08-31T06:50:09;9.73;;;3.67;;
69161;SDS011;56269;51.738;21.652;2023-08-31T06:52:35;8.65;;;3.97;;
69161;SDS011;56269;51.738;21.652;2023-08-31T06:55:02;7.82;;;3.65;;
69161;SDS011;56269;51.738;21.652;2023-08-31T06:57:28;9.80;;;3.67;;
69161;SDS011;56269;51.738;21.652;2023-08-31T06:59:55;8.27;;;3.70;;
69161;SDS011;56269;51.738;21.652;2023-08-31T07:02:21;7.68;;;3.55;;
69161;SDS011;56269;51.738;21.652;2023-08-31T07:04:50;8.57;;;3.72;;
69161;SDS011;56269;51.738;21.652;2023-08-31T07:07:18;8.48;;;3.45;;
69161;SDS011;56269;51.738;21.652;2023-08-31T07:09:45;7.63;;;3.47;;
69161;SDS011;56269;51.738;21.652;2023-08-31T07:12:13;9.03;;;3.87;;
69161;SDS011;56269;51.738;21.652;2023-08-31T07:14:39;9.45;;;3.65;;
69161;SDS011;56269;51.738;21.652;2023-08-31T07:17:05;8.25;;;3.15;;
69161;SDS011;56269;51.738;21.652;2023-08-31T07:19:31;6.75;;;3.10;;
69161;SDS011;56269;51.738;21.652;2023-08-31T07:22:01;8.43;;;3.43;;
69161;SDS011;56269;51.738;21.652;2023-08-31T07:24:29;7.82;;;3.63;;
69161;SDS011;56269;51.738;21.652;2023-08-31T07:26:55;8.48;;;3.95;;
69161;SDS011;56269;51.738;21.652;2023-08-31T07:29:24;7.47;;;3.10;;
69161;SDS011;56269;51.738;21.652;2023-08-31T07:31:50;6.35;;;3.08;;
69161;SDS011;56269;51.738;21.652;2023-08-31T07:34:16;6.40;;;2.80;;
69161;SDS011;56269;51.738;21.652;2023-08-31T07:36:43;6.35;;;2.95;;
69161;SDS011;56269;51.738;21.652;2023-08-31T07:39:10;7.47;;;2.97;;
69161;SDS011;56269;51.738;21.652;2023-08-31T07:41:36;6.50;;;2.78;;
69161;SDS011;56269;51.738;21.652;2023-08-31T07:44:02;6.68;;;2.72;;
69161;SDS011;56269;51.738;21.652;2023-08-31T07:46:29;6.27;;;2.90;;
69161;SDS011;56269;51.738;21.652;2023-08-31T07:48:55;5.28;;;2.30;;
69161;SDS011;56269;51.738;21.652;2023-08-31T07:51:21;6.20;;;2.47;;
69161;SDS011;56269;51.738;21.652;2023-08-31T07:53:49;6.72;;;2.75;;
69161;SDS011;56269;51.738;21.652;2023-08-31T07:56:15;6.63;;;2.85;;
69161;SDS011;56269;51.738;21.652;2023-08-31T07:58:41;6.87;;;2.57;;
69161;SDS011;56269;51.738;21.652;2023-08-31T08:01:07;5.60;;;2.33;;
69161;SDS011;56269;51.738;21.652;2023-08-31T08:03:34;5.88;;;2.35;;
69161;SDS011;56269;51.738;21.652;2023-08-31T08:06:00;5.35;;;2.30;;
69161;SDS011;56269;51.738;21.652;2023-08-31T08:08:26;5.80;;;2.22;;
69161;SDS011;56269;51.738;21.652;2023-08-31T08:10:53;6.10;;;2.50;;
69161;SDS011;56269;51.738;21.652;2023-08-31T08:13:20;6.47;;;2.60;;
69161;SDS011;56269;51.738;21.652;2023-08-31T08:15:46;5.53;;;2.50;;
69161;SDS011;56269;51.738;21.652;2023-08-31T08:18:13;5.50;;;2.20;;
69161;SDS011;56269;51.738;21.652;2023-08-31T08:20:39;5.38;;;2.30;;
69161;SDS011;56269;51.738;21.652;2023-08-31T08:23:05;6.77;;;2.17;;
69161;SDS011;56269;51.738;21.652;2023-08-31T08:25:32;5.80;;;2.53;;
69161;SDS011;56269;51.738;21.652;2023-08-31T08:28:02;5.50;;;2.20;;
69161;SDS011;56269;51.738;21.652;2023-08-31T08:30:28;5.97;;;2.03;;
69161;SDS011;56269;51.738;21.652;2023-08-31T08:32:55;5.40;;;2.25;;
69161;SDS011;56269;51.738;21.652;2023-08-31T08:35:21;5.00;;;1.90;;
69161;SDS011;56269;51.738;21.652;2023-08-31T08:37:47;4.72;;;2.00;;
69161;SDS011;56269;51.738;21.652;2023-08-31T08:40:13;5.57;;;1.95;;
69161;SDS011;56269;51.738;21.652;2023-08-31T08:42:42;4.90;;;1.92;;
69161;SDS011;56269;51.738;21.652;2023-08-31T08:45:11;4.90;;;1.90;;
69161;SDS011;56269;51.738;21.652;2023-08-31T08:47:42;6.60;;;2.00;;
69161;SDS011;56269;51.738;21.652;2023-08-31T08:50:10;4.65;;;1.73;;
69161;SDS011;56269;51.738;21.652;2023-08-31T08:52:38;4.75;;;1.70;;
69161;SDS011;56269;51.738;21.652;2023-08-31T08:55:05;4.85;;;1.70;;
69161;SDS011;56269;51.738;21.652;2023-08-31T08:57:32;4.55;;;1.70;;
69161;SDS011;56269;51.738;21.652;2023-08-31T08:59:59;4.87;;;1.80;;
69161;SDS011;56269;51.738;21.652;2023-08-31T09:02:25;4.63;;;1.80;;
69161;SDS011;56269;51.738;21.652;2023-08-31T09:04:51;5.03;;;1.95;;
69161;SDS011;56269;51.738;21.652;2023-08-31T09:07:20;4.53;;;1.60;;
69161;SDS011;56269;51.738;21.652;2023-08-31T09:09:51;4.37;;;1.77;;
69161;SDS011;56269;51.738;21.652;2023-08-31T09:12:18;4.80;;;1.70;;
69161;SDS011;56269;51.738;21.652;2023-08-31T09:14:58;4.88;;;1.50;;
69161;SDS011;56269;51.738;21.652;2023-08-31T09:17:42;4.63;;;1.58;;
69161;SDS011;56269;51.738;21.652;2023-08-31T09:20:12;3.03;;;1.13;;
69161;SDS011;56269;51.738;21.652;2023-08-31T09:22:42;4.17;;;1.53;;
69161;SDS011;56269;51.738;21.652;2023-08-31T09:25:11;3.47;;;1.30;;
69161;SDS011;56269;51.738;21.652;2023-08-31T09:27:38;4.00;;;1.13;;
69161;SDS011;56269;51.738;21.652;2023-08-31T09:30:08;4.10;;;1.50;;
69161;SDS011;56269;51.738;21.652;2023-08-31T09:32:35;3.28;;;1.23;;
69161;SDS011;56269;51.738;21.652;2023-08-31T09:35:01;3.60;;;1.33;;
69161;SDS011;56269;51.738;21.652;2023-08-31T09:37:29;4.53;;;1.58;;
69161;SDS011;56269;51.738;21.652;2023-08-31T09:39:55;4.57;;;1.50;;
69161;SDS011;56269;51.738;21.652;2023-08-31T09:42:21;3.90;;;1.50;;
69161;SDS011;56269;51.738;21.652;2023-08-31T09:44:49;4.63;;;1.25;;
69161;SDS011;56269;51.738;21.652;2023-08-31T09:47:15;3.67;;;1.50;;
69161;SDS011;56269;51.738;21.652;2023-08-31T09:49:42;4.25;;;1.70;;
69161;SDS011;56269;51.738;21.652;2023-08-31T09:52:10;4.40;;;1.70;;
69161;SDS011;56269;51.738;21.652;2023-08-31T09:54:37;4.28;;;1.63;;
69161;SDS011;56269;51.738;21.652;2023-08-31T09:57:05;4.45;;;1.70;;
69161;SDS011;56269;51.738;21.652;2023-08-31T09:59:31;4.70;;;1.70;;
69161;SDS011;56269;51.738;21.652;2023-08-31T10:01:59;4.57;;;1.63;;
69161;SDS011;56269;51.738;21.652;2023-08-31T10:04:27;4.68;;;1.60;;
69161;SDS011;56269;51.738;21.652;2023-08-31T10:06:56;4.35;;;1.65;;
69161;SDS011;56269;51.738;21.652;2023-08-31T10:09:23;4.13;;;1.55;;
69161;SDS011;56269;51.738;21.652;2023-08-31T10:11:49;4.83;;;1.70;;
69161;SDS011;56269;51.738;21.652;2023-08-31T10:14:16;4.82;;;1.58;;
69161;SDS011;56269;51.738;21.652;2023-08-31T10:16:46;3.35;;;1.30;;
69161;SDS011;56269;51.738;21.652;2023-08-31T10:19:15;3.42;;;1.30;;
69161;SDS011;56269;51.738;21.652;2023-08-31T10:21:41;5.22;;;1.63;;
69161;SDS011;56269;51.738;21.652;2023-08-31T10:24:09;3.37;;;1.20;;
69161;SDS011;56269;51.738;21.652;2023-08-31T10:26:36;3.55;;;1.35;;
69161;SDS011;56269;51.738;21.652;2023-08-31T10:29:02;3.17;;;1.30;;
69161;SDS011;56269;51.738;21.652;2023-08-31T10:31:31;4.05;;;1.42;;
69161;SDS011;56269;51.738;21.652;2023-08-31T10:34:02;3.28;;;1.40;;
69161;SDS011;56269;51.738;21.652;2023-08-31T10:36:45;4.33;;;1.40;;
69161;SDS011;56269;51.738;21.652;2023-08-31T10:43:13;4.65;;;1.52;;
69161;SDS011;56269;51.738;21.652;2023-08-31T10:45:44;2.88;;;1.20;;
69161;SDS011;56269;51.738;21.652;2023-08-31T10:48:11;3.55;;;1.40;;
69161;SDS011;56269;51.738;21.652;2023-08-31T10:50:44;3.80;;;1.50;;
69161;SDS011;56269;51.738;21.652;2023-08-31T10:53:12;4.60;;;1.40;;
69161;SDS011;56269;51.738;21.652;2023-08-31T10:55:51;4.50;;;1.67;;
69161;SDS011;56269;51.738;21.652;2023-08-31T10:58:18;3.95;;;1.58;;
69161;SDS011;56269;51.738;21.652;2023-08-31T11:00:51;4.18;;;1.40;;
69161;SDS011;56269;51.738;21.652;2023-08-31T11:03:18;4.10;;;1.50;;
69161;SDS011;56269;51.738;21.652;2023-08-31T11:05:51;6.28;;;1.83;;
69161;SDS011;56269;51.738;21.652;2023-08-31T11:08:24;4.28;;;1.73;;
69161;SDS011;56269;51.738;21.652;2023-08-31T11:10:52;4.90;;;1.77;;
69161;SDS011;56269;51.738;21.652;2023-08-31T11:13:18;5.70;;;2.03;;
69161;SDS011;56269;51.738;21.652;2023-08-31T11:15:46;4.07;;;1.60;;
69161;SDS011;56269;51.738;21.652;2023-08-31T11:18:12;4.93;;;1.88;;
69161;SDS011;56269;51.738;21.652;2023-08-31T11:20:42;5.10;;;2.00;;
69161;SDS011;56269;51.738;21.652;2023-08-31T11:23:08;4.40;;;1.80;;
69161;SDS011;56269;51.738;21.652;2023-08-31T11:25:34;4.85;;;1.95;;
69161;SDS011;56269;51.738;21.652;2023-08-31T11:28:01;5.53;;;1.83;;
69161;SDS011;56269;51.738;21.652;2023-08-31T11:30:32;4.60;;;1.70;;
69161;SDS011;56269;51.738;21.652;2023-08-31T11:33:17;4.20;;;1.50;;
69161;SDS011;56269;51.738;21.652;2023-08-31T11:35:44;3.95;;;1.40;;
69161;SDS011;56269;51.738;21.652;2023-08-31T11:38:10;4.60;;;1.48;;
69161;SDS011;56269;51.738;21.652;2023-08-31T11:40:38;6.00;;;1.70;;
69161;SDS011;56269;51.738;21.652;2023-08-31T11:43:07;3.80;;;1.52;;
69161;SDS011;56269;51.738;21.652;2023-08-31T11:45:33;4.80;;;1.60;;
69161;SDS011;56269;51.738;21.652;2023-08-31T11:48:01;2.97;;;1.10;;
69161;SDS011;56269;51.738;21.652;2023-08-31T11:50:28;3.72;;;1.60;;
69161;SDS011;56269;51.738;21.652;2023-08-31T11:52:55;7.13;;;1.70;;
69161;SDS011;56269;51.738;21.652;2023-08-31T11:55:21;3.50;;;1.50;;
69161;SDS011;56269;51.738;21.652;2023-08-31T11:57:51;4.57;;;1.65;;
69161;SDS011;56269;51.738;21.652;2023-08-31T12:00:21;4.40;;;1.77;;
69161;SDS011;56269;51.738;21.652;2023-08-31T12:02:56;4.88;;;1.70;;
69161;SDS011;56269;51.738;21.652;2023-08-31T12:05:24;4.20;;;1.63;;
69161;SDS011;56269;51.738;21.652;2023-08-31T12:07:52;3.92;;;1.60;;
69161;SDS011;56269;51.738;21.652;2023-08-31T12:10:20;4.70;;;1.83;;
69161;SDS011;56269;51.738;21.652;2023-08-31T12:12:46;4.60;;;1.95;;
69161;SDS011;56269;51.738;21.652;2023-08-31T12:15:13;4.05;;;1.90;;
69161;SDS011;56269;51.738;21.652;2023-08-31T12:17:39;4.53;;;1.80;;
69161;SDS011;56269;51.738;21.652;2023-08-31T12:20:06;4.50;;;1.70;;
69161;SDS011;56269;51.738;21.652;2023-08-31T12:22:33;4.57;;;1.80;;
69161;SDS011;56269;51.738;21.652;2023-08-31T12:24:59;4.60;;;1.65;;
69161;SDS011;56269;51.738;21.652;2023-08-31T12:27:25;4.68;;;2.10;;
69161;SDS011;56269;51.738;21.652;2023-08-31T12:29:51;4.87;;;1.70;;
69161;SDS011;56269;51.738;21.652;2023-08-31T12:32:18;4.45;;;1.90;;
69161;SDS011;56269;51.738;21.652;2023-08-31T12:34:45;4.88;;;1.80;;
69161;SDS011;56269;51.738;21.652;2023-08-31T12:37:12;5.28;;;1.95;;
69161;SDS011;56269;51.738;21.652;2023-08-31T12:39:39;4.60;;;1.83;;
69161;SDS011;56269;51.738;21.652;2023-08-31T12:42:08;4.50;;;1.80;;
69161;SDS011;56269;51.738;21.652;2023-08-31T12:44:34;4.55;;;2.03;;
69161;SDS011;56269;51.738;21.652;2023-08-31T12:47:00;5.28;;;1.95;;
69161;SDS011;56269;51.738;21.652;2023-08-31T12:49:26;4.88;;;2.05;;
69161;SDS011;56269;51.738;21.652;2023-08-31T12:51:52;4.37;;;2.00;;
69161;SDS011;56269;51.738;21.652;2023-08-31T12:54:18;4.63;;;2.10;;
69161;SDS011;56269;51.738;21.652;2023-08-31T12:56:45;4.82;;;2.10;;
69161;SDS011;56269;51.738;21.652;2023-08-31T12:59:11;5.30;;;1.88;;
69161;SDS011;56269;51.738;21.652;2023-08-31T13:01:37;4.40;;;1.90;;
69161;SDS011;56269;51.738;21.652;2023-08-31T13:04:03;4.70;;;2.10;;
69161;SDS011;56269;51.738;21.652;2023-08-31T13:06:31;4.60;;;2.03;;
69161;SDS011;56269;51.738;21.652;2023-08-31T13:08:57;5.10;;;2.10;;
69161;SDS011;56269;51.738;21.652;2023-08-31T13:11:23;4.38;;;2.00;;
69161;SDS011;56269;51.738;21.652;2023-08-31T13:13:49;5.10;;;2.17;;
69161;SDS011;56269;51.738;21.652;2023-08-31T13:16:19;4.90;;;2.07;;
69161;SDS011;56269;51.738;21.652;2023-08-31T13:18:47;4.75;;;1.98;;
69161;SDS011;56269;51.738;21.652;2023-08-31T13:21:13;4.75;;;2.05;;
69161;SDS011;56269;51.738;21.652;2023-08-31T13:23:39;4.95;;;2.10;;
69161;SDS011;56269;51.738;21.652;2023-08-31T13:26:08;6.03;;;2.05;;
69161;SDS011;56269;51.738;21.652;2023-08-31T13:28:35;4.57;;;2.00;;
69161;SDS011;56269;51.738;21.652;2023-08-31T13:31:02;7.53;;;2.08;;
69161;SDS011;56269;51.738;21.652;2023-08-31T13:33:28;5.00;;;2.08;;
69161;SDS011;56269;51.738;21.652;2023-08-31T13:35:58;4.50;;;1.83;;
69161;SDS011;56269;51.738;21.652;2023-08-31T13:38:25;5.07;;;2.17;;
69161;SDS011;56269;51.738;21.652;2023-08-31T13:40:54;5.07;;;2.10;;
69161;SDS011;56269;51.738;21.652;2023-08-31T13:43:24;6.03;;;2.55;;
69161;SDS011;56269;51.738;21.652;2023-08-31T13:45:51;5.75;;;2.30;;
69161;SDS011;56269;51.738;21.652;2023-08-31T13:48:18;4.90;;;2.10;;
69161;SDS011;56269;51.738;21.652;2023-08-31T13:50:46;5.18;;;2.20;;
69161;SDS011;56269;51.738;21.652;2023-08-31T13:53:12;7.13;;;2.10;;
69161;SDS011;56269;51.738;21.652;2023-08-31T13:55:38;5.45;;;2.17;;
69161;SDS011;56269;51.738;21.652;2023-08-31T13:58:05;4.75;;;2.22;;
69161;SDS011;56269;51.738;21.652;2023-08-31T14:00:34;8.18;;;2.92;;
69161;SDS011;56269;51.738;21.652;2023-08-31T14:03:02;5.00;;;2.08;;
69161;SDS011;56269;51.738;21.652;2023-08-31T14:05:30;4.93;;;2.20;;
69161;SDS011;56269;51.738;21.652;2023-08-31T14:07:56;4.75;;;2.00;;
69161;SDS011;56269;51.738;21.652;2023-08-31T14:10:24;4.40;;;1.85;;
69161;SDS011;56269;51.738;21.652;2023-08-31T14:12:50;6.28;;;2.70;;
69161;SDS011;56269;51.738;21.652;2023-08-31T14:15:17;8.52;;;3.40;;
69161;SDS011;56269;51.738;21.652;2023-08-31T14:17:43;7.53;;;2.83;;
69161;SDS011;56269;51.738;21.652;2023-08-31T14:20:10;9.10;;;2.60;;
69161;SDS011;56269;51.738;21.652;2023-08-31T14:22:37;5.70;;;2.42;;
69161;SDS011;56269;51.738;21.652;2023-08-31T14:25:11;5.47;;;2.40;;
69161;SDS011;56269;51.738;21.652;2023-08-31T14:27:38;5.55;;;2.47;;
69161;SDS011;56269;51.738;21.652;2023-08-31T14:30:05;6.03;;;3.07;;
69161;SDS011;56269;51.738;21.652;2023-08-31T14:32:32;5.60;;;2.72;;
69161;SDS011;56269;51.738;21.652;2023-08-31T14:34:59;5.68;;;2.80;;
69161;SDS011;56269;51.738;21.652;2023-08-31T14:37:25;5.80;;;2.85;;
69161;SDS011;56269;51.738;21.652;2023-08-31T14:39:52;6.80;;;3.10;;
69161;SDS011;56269;51.738;21.652;2023-08-31T14:42:19;5.73;;;2.97;;
69161;SDS011;56269;51.738;21.652;2023-08-31T14:44:47;6.00;;;3.00;;
69161;SDS011;56269;51.738;21.652;2023-08-31T14:47:14;7.47;;;3.03;;